KCUB/CUB METAR and TAF weather

Enter ICAO airport designator
Station Type Date Time Source
KCUB METAR 2018/04/26 14:53 UTC NOAA

KCUB 261453Z AUTO VRB05KT 10SM CLR 21/11 A2988 RMK AO2 SLP117 T02110111 52005


Station Type Date Time Source
KCUB Decoded METAR 2018/04/26 14:53 UTC NOAA

OWENS DOWNTOWN AIRPORT, SC, United States (KCUB) 33-58N 081-00W 56M
Apr 26, 2018 - 10:53 AM EDT / 2018.04.26 1453 UTC
Wind: Variable at 6 MPH (5 KT):0
Visibility: 10 mile(s):0
Sky conditions: clear
Temperature: 70.0 F (21.1 C)
Dew Point: 52.0 F (11.1 C)
Relative Humidity: 52%
Pressure (altimeter): 29.88 in. Hg (1011 hPa)
Pressure tendency: 0.01 inches (0.5 hPa) higher than three hours ago
ob: KCUB 261453Z AUTO VRB05KT 10SM CLR 21/11 A2988 RMK AO2 SLP117 T02110111 52005
cycle: 15

Station Type Date Time Source
KCUB TAF 2018/04/26 14:30 UTC NOAA

TAF
AMD KCUB 261429Z 2614/2712 13004KT P6SM SCT100
FM261700 17006KT P6SM BKN050
FM270000 21007KT 6SM -SHRA BKN035
FM270600 23004KT 6SM BR OVC020


Example: see airport list